sensor_id;sensor_type;location;lat;lon;timestamp;temperature;humidity
55313;DHT22;46892;45.668;11.756;2022-12-18T00:01:33;5.90;77.90
55313;DHT22;46892;45.668;11.756;2022-12-18T00:04:01;5.90;78.10
55313;DHT22;46892;45.668;11.756;2022-12-18T00:06:28;5.80;78.20
55313;DHT22;46892;45.668;11.756;2022-12-18T00:08:55;5.80;78.10
55313;DHT22;46892;45.668;11.756;2022-12-18T00:11:24;5.70;77.80
55313;DHT22;46892;45.668;11.756;2022-12-18T00:13:51;5.80;79.10
55313;DHT22;46892;45.668;11.756;2022-12-18T00:16:19;5.80;78.60
55313;DHT22;46892;45.668;11.756;2022-12-18T00:18:47;5.70;78.00
55313;DHT22;46892;45.668;11.756;2022-12-18T00:21:14;5.70;78.60
55313;DHT22;46892;45.668;11.756;2022-12-18T00:23:41;5.80;79.00
55313;DHT22;46892;45.668;11.756;2022-12-18T00:26:12;5.80;79.30
55313;DHT22;46892;45.668;11.756;2022-12-18T00:28:37;5.70;79.70
55313;DHT22;46892;45.668;11.756;2022-12-18T00:31:09;5.70;79.00
55313;DHT22;46892;45.668;11.756;2022-12-18T00:33:36;5.60;78.30
55313;DHT22;46892;45.668;11.756;2022-12-18T00:38:28;5.30;78.50
55313;DHT22;46892;45.668;11.756;2022-12-18T00:40:54;5.10;78.10
55313;DHT22;46892;45.668;11.756;2022-12-18T00:43:19;5.00;79.00
55313;DHT22;46892;45.668;11.756;2022-12-18T00:45:45;5.00;79.20
55313;DHT22;46892;45.668;11.756;2022-12-18T00:48:11;5.00;79.10
55313;DHT22;46892;45.668;11.756;2022-12-18T00:50:37;5.00;78.80
55313;DHT22;46892;45.668;11.756;2022-12-18T00:53:02;5.00;78.90
55313;DHT22;46892;45.668;11.756;2022-12-18T00:55:28;5.00;78.70
55313;DHT22;46892;45.668;11.756;2022-12-18T00:57:53;5.00;80.20
55313;DHT22;46892;45.668;11.756;2022-12-18T01:00:19;5.00;80.10
55313;DHT22;46892;45.668;11.756;2022-12-18T01:02:45;5.00;79.90
55313;DHT22;46892;45.668;11.756;2022-12-18T01:05:15;5.00;79.80
55313;DHT22;46892;45.668;11.756;2022-12-18T01:07:41;4.90;79.30
55313;DHT22;46892;45.668;11.756;2022-12-18T01:10:08;4.90;79.40
55313;DHT22;46892;45.668;11.756;2022-12-18T01:12:35;4.80;79.30
55313;DHT22;46892;45.668;11.756;2022-12-18T01:15:01;4.70;78.70
55313;DHT22;46892;45.668;11.756;2022-12-18T01:17:27;4.70;79.10
55313;DHT22;46892;45.668;11.756;2022-12-18T01:19:53;4.70;78.90
55313;DHT22;46892;45.668;11.756;2022-12-18T01:22:18;4.70;79.20
55313;DHT22;46892;45.668;11.756;2022-12-18T01:24:44;4.80;79.60
55313;DHT22;46892;45.668;11.756;2022-12-18T01:27:10;4.70;79.90
55313;DHT22;46892;45.668;11.756;2022-12-18T01:29:35;4.80;79.30
55313;DHT22;46892;45.668;11.756;2022-12-18T01:32:01;4.70;78.50
55313;DHT22;46892;45.668;11.756;2022-12-18T01:34:27;4.60;78.60
55313;DHT22;46892;45.668;11.756;2022-12-18T01:36:52;4.60;78.90
55313;DHT22;46892;45.668;11.756;2022-12-18T01:39:18;4.60;79.50
55313;DHT22;46892;45.668;11.756;2022-12-18T01:41:46;4.60;79.90
55313;DHT22;46892;45.668;11.756;2022-12-18T01:50:08;4.70;80.20
55313;DHT22;46892;45.668;11.756;2022-12-18T01:52:34;4.80;81.50
55313;DHT22;46892;45.668;11.756;2022-12-18T01:55:03;4.80;79.50
55313;DHT22;46892;45.668;11.756;2022-12-18T01:57:29;4.70;78.70
55313;DHT22;46892;45.668;11.756;2022-12-18T02:00:00;4.60;79.00
55313;DHT22;46892;45.668;11.756;2022-12-18T02:02:28;4.50;79.90
55313;DHT22;46892;45.668;11.756;2022-12-18T02:04:54;4.40;79.90
55313;DHT22;46892;45.668;11.756;2022-12-18T02:07:42;4.30;79.80
55313;DHT22;46892;45.668;11.756;2022-12-18T02:27:08;3.90;81.10
55313;DHT22;46892;45.668;11.756;2022-12-18T02:29:44;4.00;81.90
55313;DHT22;46892;45.668;11.756;2022-12-18T02:32:15;3.90;81.60
55313;DHT22;46892;45.668;11.756;2022-12-18T02:34:43;3.80;81.80
55313;DHT22;46892;45.668;11.756;2022-12-18T02:37:12;3.80;82.10
55313;DHT22;46892;45.668;11.756;2022-12-18T02:39:42;3.80;82.20
55313;DHT22;46892;45.668;11.756;2022-12-18T02:42:07;3.80;82.50
55313;DHT22;46892;45.668;11.756;2022-12-18T02:44:44;3.80;82.10
55313;DHT22;46892;45.668;11.756;2022-12-18T02:47:12;3.80;82.10
55313;DHT22;46892;45.668;11.756;2022-12-18T02:49:56;3.90;82.30
55313;DHT22;46892;45.668;11.756;2022-12-18T02:58:14;4.00;81.40
55313;DHT22;46892;45.668;11.756;2022-12-18T03:01:07;4.00;80.90
55313;DHT22;46892;45.668;11.756;2022-12-18T03:03:41;3.90;80.80
55313;DHT22;46892;45.668;11.756;2022-12-18T03:06:12;3.90;81.50
55313;DHT22;46892;45.668;11.756;2022-12-18T03:08:44;3.90;81.50
55313;DHT22;46892;45.668;11.756;2022-12-18T03:11:12;3.90;81.70
55313;DHT22;46892;45.668;11.756;2022-12-18T03:16:07;3.80;82.10
55313;DHT22;46892;45.668;11.756;2022-12-18T03:18:39;3.90;81.60
55313;DHT22;46892;45.668;11.756;2022-12-18T03:21:08;3.90;81.50
55313;DHT22;46892;45.668;11.756;2022-12-18T03:23:40;3.90;81.20
55313;DHT22;46892;45.668;11.756;2022-12-18T03:26:16;3.80;81.60
55313;DHT22;46892;45.668;11.756;2022-12-18T03:28:47;3.90;82.20
55313;DHT22;46892;45.668;11.756;2022-12-18T03:31:14;3.90;80.20
55313;DHT22;46892;45.668;11.756;2022-12-18T03:33:46;3.80;80.60
55313;DHT22;46892;45.668;11.756;2022-12-18T03:36:12;3.80;81.70
55313;DHT22;46892;45.668;11.756;2022-12-18T03:38:38;3.70;82.10
55313;DHT22;46892;45.668;11.756;2022-12-18T03:43:47;3.60;81.20
55313;DHT22;46892;45.668;11.756;2022-12-18T03:46:28;3.50;81.20
55313;DHT22;46892;45.668;11.756;2022-12-18T03:54:47;3.20;82.60
55313;DHT22;46892;45.668;11.756;2022-12-18T03:57:21;3.10;82.80
55313;DHT22;46892;45.668;11.756;2022-12-18T03:59:50;3.10;83.20
55313;DHT22;46892;45.668;11.756;2022-12-18T04:02:18;3.10;83.30
55313;DHT22;46892;45.668;11.756;2022-12-18T04:04:44;3.20;82.30
55313;DHT22;46892;45.668;11.756;2022-12-18T04:07:13;2.80;80.70
55313;DHT22;46892;45.668;11.756;2022-12-18T04:09:40;2.80;81.70
55313;DHT22;46892;45.668;11.756;2022-12-18T04:12:06;2.70;81.80
55313;DHT22;46892;45.668;11.756;2022-12-18T04:14:33;2.70;82.80
55313;DHT22;46892;45.668;11.756;2022-12-18T04:17:01;2.60;83.00
55313;DHT22;46892;45.668;11.756;2022-12-18T04:19:27;2.70;83.70
55313;DHT22;46892;45.668;11.756;2022-12-18T04:21:53;2.80;83.50
55313;DHT22;46892;45.668;11.756;2022-12-18T04:24:19;2.70;83.30
55313;DHT22;46892;45.668;11.756;2022-12-18T04:26:45;2.70;83.80
55313;DHT22;46892;45.668;11.756;2022-12-18T04:29:10;2.70;83.50
55313;DHT22;46892;45.668;11.756;2022-12-18T04:31:36;2.60;84.10
55313;DHT22;46892;45.668;11.756;2022-12-18T04:34:02;2.60;83.70
55313;DHT22;46892;45.668;11.756;2022-12-18T04:36:28;2.70;83.40
55313;DHT22;46892;45.668;11.756;2022-12-18T04:38:53;2.50;83.70
55313;DHT22;46892;45.668;11.756;2022-12-18T04:41:19;2.50;83.90
55313;DHT22;46892;45.668;11.756;2022-12-18T04:43:44;2.40;84.00
55313;DHT22;46892;45.668;11.756;2022-12-18T04:46:10;2.40;84.30
55313;DHT22;46892;45.668;11.756;2022-12-18T04:48:36;2.40;84.50
55313;DHT22;46892;45.668;11.756;2022-12-18T04:51:03;2.50;84.40
55313;DHT22;46892;45.668;11.756;2022-12-18T04:53:29;2.50;83.80
55313;DHT22;46892;45.668;11.756;2022-12-18T04:56:09;2.50;83.90
55313;DHT22;46892;45.668;11.756;2022-12-18T04:58:36;2.50;83.20
55313;DHT22;46892;45.668;11.756;2022-12-18T05:01:03;2.50;84.10
55313;DHT22;46892;45.668;11.756;2022-12-18T05:03:29;2.50;84.40
55313;DHT22;46892;45.668;11.756;2022-12-18T05:05:55;2.60;83.80
55313;DHT22;46892;45.668;11.756;2022-12-18T05:08:21;2.70;83.40
55313;DHT22;46892;45.668;11.756;2022-12-18T05:10:46;2.60;82.90
55313;DHT22;46892;45.668;11.756;2022-12-18T05:13:12;2.70;83.10
55313;DHT22;46892;45.668;11.756;2022-12-18T05:15:38;2.70;83.10
55313;DHT22;46892;45.668;11.756;2022-12-18T05:18:04;2.80;83.00
55313;DHT22;46892;45.668;11.756;2022-12-18T05:20:31;2.90;82.60
55313;DHT22;46892;45.668;11.756;2022-12-18T05:22:56;2.90;83.30
55313;DHT22;46892;45.668;11.756;2022-12-18T05:25:22;2.80;83.20
55313;DHT22;46892;45.668;11.756;2022-12-18T05:27:48;2.80;83.40
55313;DHT22;46892;45.668;11.756;2022-12-18T05:30:14;2.80;83.50
55313;DHT22;46892;45.668;11.756;2022-12-18T05:32:40;2.70;83.50
55313;DHT22;46892;45.668;11.756;2022-12-18T05:35:08;2.80;84.40
55313;DHT22;46892;45.668;11.756;2022-12-18T05:37:34;2.80;84.10
55313;DHT22;46892;45.668;11.756;2022-12-18T05:40:00;2.80;83.50
55313;DHT22;46892;45.668;11.756;2022-12-18T05:42:25;2.70;83.40
55313;DHT22;46892;45.668;11.756;2022-12-18T05:44:51;2.70;82.90
55313;DHT22;46892;45.668;11.756;2022-12-18T05:47:17;2.70;82.70
55313;DHT22;46892;45.668;11.756;2022-12-18T05:49:42;2.80;83.40
55313;DHT22;46892;45.668;11.756;2022-12-18T05:52:08;2.70;84.10
55313;DHT22;46892;45.668;11.756;2022-12-18T05:54:34;2.80;83.60
55313;DHT22;46892;45.668;11.756;2022-12-18T05:57:00;2.80;83.60
55313;DHT22;46892;45.668;11.756;2022-12-18T05:59:25;2.80;83.90
55313;DHT22;46892;45.668;11.756;2022-12-18T06:01:51;2.80;83.20
55313;DHT22;46892;45.668;11.756;2022-12-18T06:04:17;2.70;82.50
55313;DHT22;46892;45.668;11.756;2022-12-18T06:06:42;2.60;83.00
55313;DHT22;46892;45.668;11.756;2022-12-18T06:09:08;2.50;83.20
55313;DHT22;46892;45.668;11.756;2022-12-18T06:11:37;2.40;83.60
55313;DHT22;46892;45.668;11.756;2022-12-18T06:14:04;2.30;83.70
55313;DHT22;46892;45.668;11.756;2022-12-18T06:16:30;2.30;84.10
55313;DHT22;46892;45.668;11.756;2022-12-18T06:19:00;2.30;84.50
55313;DHT22;46892;45.668;11.756;2022-12-18T06:21:27;2.30;84.40
55313;DHT22;46892;45.668;11.756;2022-12-18T06:23:53;2.30;84.40
55313;DHT22;46892;45.668;11.756;2022-12-18T06:26:18;2.20;84.70
55313;DHT22;46892;45.668;11.756;2022-12-18T06:28:44;2.30;84.60
55313;DHT22;46892;45.668;11.756;2022-12-18T06:31:10;2.30;84.40
55313;DHT22;46892;45.668;11.756;2022-12-18T06:33:37;2.40;84.20
55313;DHT22;46892;45.668;11.756;2022-12-18T06:36:08;2.50;83.60
55313;DHT22;46892;45.668;11.756;2022-12-18T06:38:35;2.50;84.00
55313;DHT22;46892;45.668;11.756;2022-12-18T06:41:06;2.50;83.90
55313;DHT22;46892;45.668;11.756;2022-12-18T06:43:32;2.60;83.30
55313;DHT22;46892;45.668;11.756;2022-12-18T06:45:59;2.70;83.00
55313;DHT22;46892;45.668;11.756;2022-12-18T06:48:25;2.80;83.70
55313;DHT22;46892;45.668;11.756;2022-12-18T06:50:51;2.70;83.10
55313;DHT22;46892;45.668;11.756;2022-12-18T06:53:16;2.80;83.10
55313;DHT22;46892;45.668;11.756;2022-12-18T06:55:43;2.80;83.20
55313;DHT22;46892;45.668;11.756;2022-12-18T06:58:08;2.80;83.30
55313;DHT22;46892;45.668;11.756;2022-12-18T07:00:34;2.90;82.80
55313;DHT22;46892;45.668;11.756;2022-12-18T07:03:00;3.00;82.70
55313;DHT22;46892;45.668;11.756;2022-12-18T07:05:26;3.10;82.40
55313;DHT22;46892;45.668;11.756;2022-12-18T07:07:51;3.10;81.50
55313;DHT22;46892;45.668;11.756;2022-12-18T07:10:17;2.90;81.50
55313;DHT22;46892;45.668;11.756;2022-12-18T07:12:43;2.90;82.10
55313;DHT22;46892;45.668;11.756;2022-12-18T07:15:09;3.00;81.60
55313;DHT22;46892;45.668;11.756;2022-12-18T07:17:35;2.90;82.30
55313;DHT22;46892;45.668;11.756;2022-12-18T07:20:01;2.90;82.40
55313;DHT22;46892;45.668;11.756;2022-12-18T07:22:27;3.00;80.40
55313;DHT22;46892;45.668;11.756;2022-12-18T07:24:52;3.00;80.20
55313;DHT22;46892;45.668;11.756;2022-12-18T07:27:18;2.90;80.70
55313;DHT22;46892;45.668;11.756;2022-12-18T07:29:44;2.80;81.00
55313;DHT22;46892;45.668;11.756;2022-12-18T07:32:10;2.80;81.50
55313;DHT22;46892;45.668;11.756;2022-12-18T07:34:35;2.80;82.20
55313;DHT22;46892;45.668;11.756;2022-12-18T07:37:01;2.90;82.10
55313;DHT22;46892;45.668;11.756;2022-12-18T07:39:27;3.00;81.60
55313;DHT22;46892;45.668;11.756;2022-12-18T07:41:53;3.00;81.00
55313;DHT22;46892;45.668;11.756;2022-12-18T07:44:37;2.80;80.80
55313;DHT22;46892;45.668;11.756;2022-12-18T07:47:03;2.60;81.00
55313;DHT22;46892;45.668;11.756;2022-12-18T07:49:29;2.60;81.90
55313;DHT22;46892;45.668;11.756;2022-12-18T07:51:55;2.60;82.30
55313;DHT22;46892;45.668;11.756;2022-12-18T07:54:22;2.60;82.20
55313;DHT22;46892;45.668;11.756;2022-12-18T07:56:48;2.70;82.20
55313;DHT22;46892;45.668;11.756;2022-12-18T07:59:14;2.70;82.50
55313;DHT22;46892;45.668;11.756;2022-12-18T08:01:39;2.80;83.10
55313;DHT22;46892;45.668;11.756;2022-12-18T08:04:05;3.10;82.80
55313;DHT22;46892;45.668;11.756;2022-12-18T08:06:31;3.30;81.20
55313;DHT22;46892;45.668;11.756;2022-12-18T08:08:57;3.40;81.00
55313;DHT22;46892;45.668;11.756;2022-12-18T08:11:24;3.50;81.60
55313;DHT22;46892;45.668;11.756;2022-12-18T08:13:50;3.70;82.70
55313;DHT22;46892;45.668;11.756;2022-12-18T08:16:17;3.80;81.80
55313;DHT22;46892;45.668;11.756;2022-12-18T08:18:42;4.00;80.70
55313;DHT22;46892;45.668;11.756;2022-12-18T08:21:16;4.10;80.70
55313;DHT22;46892;45.668;11.756;2022-12-18T08:23:43;4.20;81.00
55313;DHT22;46892;45.668;11.756;2022-12-18T08:26:10;4.30;82.40
55313;DHT22;46892;45.668;11.756;2022-12-18T08:28:36;4.50;81.70
55313;DHT22;46892;45.668;11.756;2022-12-18T08:31:02;4.60;79.60
55313;DHT22;46892;45.668;11.756;2022-12-18T08:33:28;4.60;79.00
55313;DHT22;46892;45.668;11.756;2022-12-18T08:35:53;4.80;80.40
55313;DHT22;46892;45.668;11.756;2022-12-18T08:38:19;4.90;79.80
55313;DHT22;46892;45.668;11.756;2022-12-18T08:40:45;5.00;78.40
55313;DHT22;46892;45.668;11.756;2022-12-18T08:43:11;5.10;79.70
55313;DHT22;46892;45.668;11.756;2022-12-18T08:45:55;5.50;82.00
55313;DHT22;46892;45.668;11.756;2022-12-18T08:48:21;5.70;81.80
55313;DHT22;46892;45.668;11.756;2022-12-18T08:50:57;6.00;81.60
55313;DHT22;46892;45.668;11.756;2022-12-18T08:53:25;6.20;80.20
55313;DHT22;46892;45.668;11.756;2022-12-18T08:55:51;6.30;77.70
55313;DHT22;46892;45.668;11.756;2022-12-18T08:58:17;6.30;77.20
55313;DHT22;46892;45.668;11.756;2022-12-18T09:00:43;6.50;77.50
55313;DHT22;46892;45.668;11.756;2022-12-18T09:03:13;6.60;76.50
55313;DHT22;46892;45.668;11.756;2022-12-18T09:05:39;6.60;76.90
55313;DHT22;46892;45.668;11.756;2022-12-18T09:08:05;6.70;76.50
55313;DHT22;46892;45.668;11.756;2022-12-18T09:10:31;6.80;77.60
55313;DHT22;46892;45.668;11.756;2022-12-18T09:12:57;6.90;77.80
55313;DHT22;46892;45.668;11.756;2022-12-18T09:15:23;7.00;76.70
55313;DHT22;46892;45.668;11.756;2022-12-18T09:17:49;7.10;76.70
55313;DHT22;46892;45.668;11.756;2022-12-18T09:20:16;7.10;76.60
55313;DHT22;46892;45.668;11.756;2022-12-18T09:22:42;7.10;76.10
55313;DHT22;46892;45.668;11.756;2022-12-18T09:25:07;7.00;76.60
55313;DHT22;46892;45.668;11.756;2022-12-18T09:27:34;7.00;77.80
55313;DHT22;46892;45.668;11.756;2022-12-18T09:30:00;7.00;78.10
55313;DHT22;46892;45.668;11.756;2022-12-18T09:32:25;7.10;78.10
55313;DHT22;46892;45.668;11.756;2022-12-18T09:34:51;7.10;78.20
55313;DHT22;46892;45.668;11.756;2022-12-18T09:37:17;7.10;78.30
55313;DHT22;46892;45.668;11.756;2022-12-18T09:39:42;7.10;78.60
55313;DHT22;46892;45.668;11.756;2022-12-18T09:42:21;7.20;78.60
55313;DHT22;46892;45.668;11.756;2022-12-18T09:44:50;7.20;79.20
55313;DHT22;46892;45.668;11.756;2022-12-18T09:47:37;7.20;77.70
55313;DHT22;46892;45.668;11.756;2022-12-18T09:50:23;7.10;78.30
55313;DHT22;46892;45.668;11.756;2022-12-18T09:52:54;7.00;78.10
55313;DHT22;46892;45.668;11.756;2022-12-18T09:55:34;7.00;79.40
55313;DHT22;46892;45.668;11.756;2022-12-18T09:58:17;7.00;78.90
55313;DHT22;46892;45.668;11.756;2022-12-18T10:00:44;7.00;76.80
55313;DHT22;46892;45.668;11.756;2022-12-18T10:03:14;6.90;75.50
55313;DHT22;46892;45.668;11.756;2022-12-18T10:05:42;6.80;77.30
55313;DHT22;46892;45.668;11.756;2022-12-18T10:11:01;6.80;78.60
55313;DHT22;46892;45.668;11.756;2022-12-18T10:13:31;6.80;76.90
55313;DHT22;46892;45.668;11.756;2022-12-18T10:18:54;6.70;76.10
55313;DHT22;46892;45.668;11.756;2022-12-18T10:21:38;6.60;78.20
55313;DHT22;46892;45.668;11.756;2022-12-18T10:26:54;6.70;78.90
55313;DHT22;46892;45.668;11.756;2022-12-18T10:29:22;6.70;78.30
55313;DHT22;46892;45.668;11.756;2022-12-18T10:31:48;6.80;77.80
55313;DHT22;46892;45.668;11.756;2022-12-18T10:34:13;6.80;76.90
55313;DHT22;46892;45.668;11.756;2022-12-18T10:36:39;6.80;77.90
55313;DHT22;46892;45.668;11.756;2022-12-18T10:39:23;6.80;76.00
55313;DHT22;46892;45.668;11.756;2022-12-18T10:41:50;6.80;76.60
55313;DHT22;46892;45.668;11.756;2022-12-18T10:44:20;6.90;76.80
55313;DHT22;46892;45.668;11.756;2022-12-18T10:46:49;6.90;77.50
55313;DHT22;46892;45.668;11.756;2022-12-18T10:49:27;6.90;77.60
55313;DHT22;46892;45.668;11.756;2022-12-18T10:52:23;6.90;77.50
55313;DHT22;46892;45.668;11.756;2022-12-18T10:54:57;7.00;76.90
55313;DHT22;46892;45.668;11.756;2022-12-18T10:57:30;7.10;75.40
55313;DHT22;46892;45.668;11.756;2022-12-18T10:59:58;7.10;74.00
55313;DHT22;46892;45.668;11.756;2022-12-18T11:02:36;7.00;74.90
55313;DHT22;46892;45.668;11.756;2022-12-18T11:05:03;7.00;75.70
55313;DHT22;46892;45.668;11.756;2022-12-18T11:07:49;7.00;76.40
55313;DHT22;46892;45.668;11.756;2022-12-18T11:10:20;7.10;75.80
55313;DHT22;46892;45.668;11.756;2022-12-18T11:12:46;7.10;75.50
55313;DHT22;46892;45.668;11.756;2022-12-18T11:15:20;7.20;75.40
55313;DHT22;46892;45.668;11.756;2022-12-18T11:17:48;7.20;75.40
55313;DHT22;46892;45.668;11.756;2022-12-18T11:20:35;7.20;72.80
55313;DHT22;46892;45.668;11.756;2022-12-18T11:23:02;7.20;72.90
55313;DHT22;46892;45.668;11.756;2022-12-18T11:25:30;7.20;72.80
55313;DHT22;46892;45.668;11.756;2022-12-18T11:28:02;7.20;72.30
55313;DHT22;46892;45.668;11.756;2022-12-18T11:30:34;7.30;70.10
55313;DHT22;46892;45.668;11.756;2022-12-18T11:33:12;7.30;71.50
55313;DHT22;46892;45.668;11.756;2022-12-18T11:38:32;7.30;70.40
55313;DHT22;46892;45.668;11.756;2022-12-18T11:41:07;7.30;68.80
55313;DHT22;46892;45.668;11.756;2022-12-18T11:43:48;7.20;68.20
55313;DHT22;46892;45.668;11.756;2022-12-18T11:46:23;7.20;68.00
55313;DHT22;46892;45.668;11.756;2022-12-18T11:51:43;7.20;70.60
55313;DHT22;46892;45.668;11.756;2022-12-18T11:54:14;7.10;70.20
55313;DHT22;46892;45.668;11.756;2022-12-18T11:56:58;7.20;70.50
55313;DHT22;46892;45.668;11.756;2022-12-18T12:03:04;7.30;71.60
55313;DHT22;46892;45.668;11.756;2022-12-18T12:05:50;7.40;71.90
55313;DHT22;46892;45.668;11.756;2022-12-18T12:08:27;7.40;71.10
55313;DHT22;46892;45.668;11.756;2022-12-18T12:11:34;7.50;71.20
55313;DHT22;46892;45.668;11.756;2022-12-18T12:17:09;7.50;70.70
55313;DHT22;46892;45.668;11.756;2022-12-18T12:22:28;7.60;70.50
55313;DHT22;46892;45.668;11.756;2022-12-18T12:31:03;7.70;68.60
55313;DHT22;46892;45.668;11.756;2022-12-18T12:36:50;7.80;68.00
55313;DHT22;46892;45.668;11.756;2022-12-18T12:39:29;7.80;68.20
55313;DHT22;46892;45.668;11.756;2022-12-18T12:41:56;7.80;68.10
55313;DHT22;46892;45.668;11.756;2022-12-18T12:44:50;7.80;67.40
55313;DHT22;46892;45.668;11.756;2022-12-18T12:47:33;7.80;67.90
55313;DHT22;46892;45.668;11.756;2022-12-18T12:50:03;7.80;68.90
55313;DHT22;46892;45.668;11.756;2022-12-18T12:52:37;7.80;67.70
55313;DHT22;46892;45.668;11.756;2022-12-18T12:55:07;8.00;67.00
55313;DHT22;46892;45.668;11.756;2022-12-18T12:57:40;7.90;67.60
55313;DHT22;46892;45.668;11.756;2022-12-18T13:00:11;7.80;67.60
55313;DHT22;46892;45.668;11.756;2022-12-18T13:05:46;7.80;68.00
55313;DHT22;46892;45.668;11.756;2022-12-18T13:08:28;7.80;67.50
55313;DHT22;46892;45.668;11.756;2022-12-18T13:10:56;7.90;67.40
55313;DHT22;46892;45.668;11.756;2022-12-18T13:13:56;7.90;68.20
55313;DHT22;46892;45.668;11.756;2022-12-18T13:16:24;7.80;68.60
55313;DHT22;46892;45.668;11.756;2022-12-18T13:18:55;7.80;68.50
55313;DHT22;46892;45.668;11.756;2022-12-18T13:21:32;7.80;68.80
55313;DHT22;46892;45.668;11.756;2022-12-18T13:24:23;7.80;69.20
55313;DHT22;46892;45.668;11.756;2022-12-18T13:26:49;7.80;69.10
55313;DHT22;46892;45.668;11.756;2022-12-18T13:29:42;7.80;69.00
55313;DHT22;46892;45.668;11.756;2022-12-18T13:32:28;7.80;69.40
55313;DHT22;46892;45.668;11.756;2022-12-18T13:37:54;7.80;69.00
55313;DHT22;46892;45.668;11.756;2022-12-18T13:45:44;7.80;68.50
55313;DHT22;46892;45.668;11.756;2022-12-18T13:48:19;7.80;68.40
55313;DHT22;46892;45.668;11.756;2022-12-18T13:50:59;7.70;68.60
55313;DHT22;46892;45.668;11.756;2022-12-18T13:53:53;7.70;68.50
55313;DHT22;46892;45.668;11.756;2022-12-18T13:56:25;7.70;68.40
55313;DHT22;46892;45.668;11.756;2022-12-18T13:59:24;7.70;68.20
55313;DHT22;46892;45.668;11.756;2022-12-18T14:01:58;7.70;68.30
55313;DHT22;46892;45.668;11.756;2022-12-18T14:04:29;7.80;68.50
55313;DHT22;46892;45.668;11.756;2022-12-18T14:07:04;7.80;68.40
55313;DHT22;46892;45.668;11.756;2022-12-18T14:09:35;7.70;68.70
55313;DHT22;46892;45.668;11.756;2022-12-18T14:12:02;7.70;68.60
55313;DHT22;46892;45.668;11.756;2022-12-18T14:14:48;7.60;68.50
55313;DHT22;46892;45.668;11.756;2022-12-18T14:17:16;7.60;68.40
55313;DHT22;46892;45.668;11.756;2022-12-18T14:19:47;7.60;69.40
55313;DHT22;46892;45.668;11.756;2022-12-18T14:22:21;7.60;69.30
55313;DHT22;46892;45.668;11.756;2022-12-18T14:25:30;7.60;69.10
55313;DHT22;46892;45.668;11.756;2022-12-18T14:30:37;7.60;68.10
55313;DHT22;46892;45.668;11.756;2022-12-18T14:33:10;7.60;68.60
55313;DHT22;46892;45.668;11.756;2022-12-18T14:35:43;7.50;69.00
55313;DHT22;46892;45.668;11.756;2022-12-18T14:40:42;7.40;70.20
55313;DHT22;46892;45.668;11.756;2022-12-18T14:43:11;7.50;70.30
55313;DHT22;46892;45.668;11.756;2022-12-18T14:45:39;7.50;69.00
55313;DHT22;46892;45.668;11.756;2022-12-18T14:48:11;7.50;69.20
55313;DHT22;46892;45.668;11.756;2022-12-18T14:50:39;7.40;69.70
55313;DHT22;46892;45.668;11.756;2022-12-18T14:53:05;7.40;70.20
55313;DHT22;46892;45.668;11.756;2022-12-18T14:55:30;7.30;70.60
55313;DHT22;46892;45.668;11.756;2022-12-18T14:57:57;7.30;70.70
55313;DHT22;46892;45.668;11.756;2022-12-18T15:00:24;7.20;70.90
55313;DHT22;46892;45.668;11.756;2022-12-18T15:02:54;7.20;71.20
55313;DHT22;46892;45.668;11.756;2022-12-18T15:05:30;7.10;71.30
55313;DHT22;46892;45.668;11.756;2022-12-18T15:07:59;7.10;71.40
55313;DHT22;46892;45.668;11.756;2022-12-18T15:10:29;7.00;71.70
55313;DHT22;46892;45.668;11.756;2022-12-18T15:18:03;6.80;72.00
55313;DHT22;46892;45.668;11.756;2022-12-18T15:26:04;6.70;72.40
55313;DHT22;46892;45.668;11.756;2022-12-18T15:28:46;6.60;72.50
55313;DHT22;46892;45.668;11.756;2022-12-18T15:33:40;6.50;72.30
55313;DHT22;46892;45.668;11.756;2022-12-18T15:36:25;6.50;72.30
55313;DHT22;46892;45.668;11.756;2022-12-18T15:38:52;6.40;72.40
55313;DHT22;46892;45.668;11.756;2022-12-18T15:41:20;6.30;72.40
55313;DHT22;46892;45.668;11.756;2022-12-18T15:43:50;6.30;72.50
55313;DHT22;46892;45.668;11.756;2022-12-18T15:46:18;6.20;72.40
55313;DHT22;46892;45.668;11.756;2022-12-18T15:48:49;6.20;72.10
55313;DHT22;46892;45.668;11.756;2022-12-18T15:51:18;6.20;72.30
55313;DHT22;46892;45.668;11.756;2022-12-18T15:53:46;6.10;72.50
55313;DHT22;46892;45.668;11.756;2022-12-18T15:56:14;6.10;72.70
55313;DHT22;46892;45.668;11.756;2022-12-18T15:58:59;6.00;72.80
55313;DHT22;46892;45.668;11.756;2022-12-18T16:01:28;6.00;73.00
55313;DHT22;46892;45.668;11.756;2022-12-18T16:03:54;6.00;73.20
55313;DHT22;46892;45.668;11.756;2022-12-18T16:06:21;6.00;73.50
55313;DHT22;46892;45.668;11.756;2022-12-18T16:08:46;5.90;73.50
55313;DHT22;46892;45.668;11.756;2022-12-18T16:11:27;5.90;73.40
55313;DHT22;46892;45.668;11.756;2022-12-18T16:14:21;5.80;73.30
55313;DHT22;46892;45.668;11.756;2022-12-18T16:16:49;5.80;73.70
55313;DHT22;46892;45.668;11.756;2022-12-18T16:19:15;5.80;73.80
55313;DHT22;46892;45.668;11.756;2022-12-18T16:21:41;5.70;74.00
55313;DHT22;46892;45.668;11.756;2022-12-18T16:24:19;5.70;74.10
55313;DHT22;46892;45.668;11.756;2022-12-18T16:26:45;5.60;74.50
55313;DHT22;46892;45.668;11.756;2022-12-18T16:29:11;5.50;74.50
55313;DHT22;46892;45.668;11.756;2022-12-18T16:31:37;5.50;74.80
55313;DHT22;46892;45.668;11.756;2022-12-18T16:34:23;5.50;75.30
55313;DHT22;46892;45.668;11.756;2022-12-18T16:36:52;5.40;75.50
55313;DHT22;46892;45.668;11.756;2022-12-18T16:39:19;5.30;75.40
55313;DHT22;46892;45.668;11.756;2022-12-18T16:41:45;5.30;75.60
55313;DHT22;46892;45.668;11.756;2022-12-18T16:44:11;5.20;75.80
55313;DHT22;46892;45.668;11.756;2022-12-18T16:46:38;5.00;76.20
55313;DHT22;46892;45.668;11.756;2022-12-18T16:49:04;4.80;76.20
55313;DHT22;46892;45.668;11.756;2022-12-18T16:51:30;4.60;76.80
55313;DHT22;46892;45.668;11.756;2022-12-18T16:53:56;4.60;77.30
55313;DHT22;46892;45.668;11.756;2022-12-18T16:56:22;4.50;77.80
55313;DHT22;46892;45.668;11.756;2022-12-18T16:58:52;4.50;78.40
55313;DHT22;46892;45.668;11.756;2022-12-18T17:01:18;4.50;79.00
55313;DHT22;46892;45.668;11.756;2022-12-18T17:03:44;4.50;79.10
55313;DHT22;46892;45.668;11.756;2022-12-18T17:06:16;4.50;79.10
55313;DHT22;46892;45.668;11.756;2022-12-18T17:08:41;4.40;79.20
55313;DHT22;46892;45.668;11.756;2022-12-18T17:11:07;4.40;78.70
55313;DHT22;46892;45.668;11.756;2022-12-18T17:13:33;4.30;78.40
55313;DHT22;46892;45.668;11.756;2022-12-18T17:16:03;4.30;78.30
55313;DHT22;46892;45.668;11.756;2022-12-18T17:18:29;4.20;78.40
55313;DHT22;46892;45.668;11.756;2022-12-18T17:21:01;4.10;78.80
55313;DHT22;46892;45.668;11.756;2022-12-18T17:23:28;4.00;79.40
55313;DHT22;46892;45.668;11.756;2022-12-18T17:25:58;4.10;79.80
55313;DHT22;46892;45.668;11.756;2022-12-18T17:28:25;4.10;79.40
55313;DHT22;46892;45.668;11.756;2022-12-18T17:30:52;4.00;79.50